Time,TemperatureF,DewpointF,PressureIn,WindDirection,WindDirectionDegrees,WindSpeedMPH,WindSpeedGustMPH,Humidity,HourlyPrecipIn,Conditions,Clouds,dailyrainin,SoftwareType,DateUTC
2014-10-02 00:09:00,49.5,47.0,29.83,WNW,292,0.0,-999.0,91,-99.99,,,0.00,Acu-Link.com,2014-10-02 04:09:00,
2014-10-02 00:24:00,48.9,46.7,29.82,WNW,292,0.0,-999.0,92,-99.99,,,0.00,Acu-Link.com,2014-10-02 04:24:00,
2014-10-02 00:39:00,49.5,47.6,29.82,WNW,292,0.0,-999.0,93,-99.99,,,0.00,Acu-Link.com,2014-10-02 04:39:00,
2014-10-02 00:54:00,49.6,47.7,29.83,WNW,292,0.0,-999.0,93,-99.99,,,0.00,Acu-Link.com,2014-10-02 04:54:00,
2014-10-02 01:09:00,49.3,47.6,29.83,WNW,292,0.0,-999.0,94,-99.99,,,0.00,Acu-Link.com,2014-10-02 05:09:00,
2014-10-02 01:24:00,49.5,47.8,29.83,WNW,292,0.0,-999.0,94,-99.99,,,0.00,Acu-Link.com,2014-10-02 05:24:00,
2014-10-02 01:40:00,49.1,47.4,29.82,WNW,292,0.0,-999.0,94,-99.99,,,0.00,Acu-Link.com,2014-10-02 05:40:00,
2014-10-02 01:55:00,48.7,47.1,29.82,WNW,292,0.0,-999.0,94,-99.99,,,0.00,Acu-Link.com,2014-10-02 05:55:00,
2014-10-02 02:10:00,48.7,47.3,29.83,WNW,292,0.0,-999.0,95,-99.99,,,0.00,Acu-Link.com,2014-10-02 06:10:00,
2014-10-02 02:26:00,49.1,47.7,29.83,WNW,292,2.2,-999.0,95,-99.99,,,0.00,Acu-Link.com,2014-10-02 06:26:00,
2014-10-02 02:41:00,48.7,47.3,29.83,WNW,292,0.0,-999.0,95,-99.99,,,0.00,Acu-Link.com,2014-10-02 06:41:00,
2014-10-02 02:56:00,48.2,46.8,29.83,WNW,292,0.0,-999.0,95,-99.99,,,0.00,Acu-Link.com,2014-10-02 06:56:00,
2014-10-02 03:12:00,48.0,46.6,29.82,WNW,292,0.0,-999.0,95,-99.99,,,0.00,Acu-Link.com,2014-10-02 07:12:00,
2014-10-02 03:27:00,48.0,46.6,29.83,WNW,292,0.0,-999.0,95,-99.99,,,0.00,Acu-Link.com,2014-10-02 07:27:00,
2014-10-02 03:42:00,47.8,46.4,29.83,WNW,292,0.0,-999.0,95,-99.99,,,0.00,Acu-Link.com,2014-10-02 07:42:00,
2014-10-02 03:58:00,48.0,46.9,29.83,WNW,292,0.0,-999.0,96,-99.99,,,0.00,Acu-Link.com,2014-10-02 07:58:00,
2014-10-02 04:13:00,48.2,47.1,29.83,WNW,292,0.0,-999.0,96,-99.99,,,0.00,Acu-Link.com,2014-10-02 08:13:00,
2014-10-02 04:28:00,48.7,47.6,29.83,WNW,292,0.0,-999.0,96,-99.99,,,0.00,Acu-Link.com,2014-10-02 08:28:00,
2014-10-02 04:43:00,48.7,47.6,29.83,WNW,292,0.0,-999.0,96,-99.99,,,0.00,Acu-Link.com,2014-10-02 08:43:00,
2014-10-02 04:59:00,48.7,47.6,29.84,WNW,292,0.0,-999.0,96,-99.99,,,0.00,Acu-Link.com,2014-10-02 08:59:00,
2014-10-02 05:14:00,48.7,47.3,29.84,WNW,292,0.0,-999.0,95,-99.99,,,0.00,Acu-Link.com,2014-10-02 09:14:00,
2014-10-02 05:29:00,48.4,47.0,29.84,WNW,292,0.0,-999.0,95,-99.99,,,0.00,Acu-Link.com,2014-10-02 09:29:00,
2014-10-02 05:44:00,47.8,46.4,29.84,WNW,292,0.0,-999.0,95,-99.99,,,0.00,Acu-Link.com,2014-10-02 09:44:00,
2014-10-02 05:59:00,48.6,47.2,29.84,WNW,292,0.0,-999.0,95,-99.99,,,0.00,Acu-Link.com,2014-10-02 09:59:00,
2014-10-02 06:14:00,48.6,47.2,29.84,WNW,292,1.7,-999.0,95,-99.99,,,0.00,Acu-Link.com,2014-10-02 10:14:00,
2014-10-02 06:29:00,48.6,47.2,29.85,WNW,292,0.0,-999.0,95,-99.99,,,0.00,Acu-Link.com,2014-10-02 10:29:00,
2014-10-02 06:44:00,49.1,48.0,29.84,East,90,2.2,-999.0,96,-99.99,,,0.00,Acu-Link.com,2014-10-02 10:44:00,